Anchorage, AK

4:00 AM AKDT on July 26, 2016 (GMT -0800)
Merrill | | Change Station

Elev 135 ft 61.22 °N, 149.85 °W | Updated 7 minutes ago

Overcast
Overcast
58 °F
Feels Like 58 °F
N
0
Wind Variable Wind from North

Today
High -- | Low -- °F
--% Chance of Precip.
Yesterday
High -- | Low -- °F
Precip. -- in
Pressure 29.89 in
Visibility 10.0 miles
Clouds Few 1000 ft
Mostly Cloudy 4000 ft
Mostly Cloudy 7000 ft
Overcast 13000 ft
Dew Point 54 °F
Humidity 87%
Rainfall 0.00 in
Snow Depth Not available.
5:18 AM 10:51 PM
Waning Gibbous, 55% visible
METAR PAMR 261153Z 00000KT 10SM FEW010 BKN040 BKN070 OVC130 14/12 A2989 RMK AO2 RAE1055 SLP122 P0000 60000 70021 T01440122 10161 20144 50000
Pressure 29.89 in
Visibility 10.0 miles
Clouds Few 1000 ft
Mostly Cloudy 4000 ft
Mostly Cloudy 7000 ft
Overcast 13000 ft
Dew Point 54 °F
Humidity 87%
Rainfall 0.00 in
Snow Depth Not available.
5:18 AM 10:51 PM
Waning Gibbous, 55% visible
METAR PAMR 261153Z 00000KT 10SM FEW010 BKN040 BKN070 OVC130 14/12 A2989 RMK AO2 RAE1055 SLP122 P0000 60000 70021 T01440122 10161 20144 50000

10-Day Weather Forecast

Almanac

Astronomy

Jul. 26, 2016 Rise Set
Actual Time
Civil Twilight
Nautical Twilight
Astronomical Twilight
Moon
Length of Visible Light
Length of Day
Tomorrow will be .
, % of the Moon is Illuminated

Today's Extremes

State Highs State Lows

Community

WunderPhotos

Upload Photos

1,927,577 photos uploaded!

WunderBlog® & News

Nearby

Air Quality

  Air Quality AQ Index Pollutant
Not available.

Snow Depth

Station Depth Elevation

Earthquake Activity

City Distance Mag. Time & Date
Minimum magnitude displayed is 2.5.

Coastal Water Temperatures

Place Temperature

Stations

Nearby Weather Stations

Station Location Temp. Windchill Dew Point Humidity Wind Precip. Elev Updated Type
                   

Watches & Warnings

There are currently no watches in effect.